Tuesday, September 02, 2014
06:52 UTC
  |  Log In   |  Register Free
Airport Search:

South Big Horn County Airport
(KGEY)

South Big Horn County Airport Diagram
No Airport Diagram Available

FAA data valid effective July 24, 2014 until September 18, 2014 (unless otherwise noted).

 
 
 
 
 
 
 
 
 
 
 
 
 
 

Current Aviation Weather for South Big Horn County Airport (KGEY)

The most recent METAR observation for KGEY was updated at: 0553 UTC
METAR Summary (Translated METAR)
KGEY
020553Z AUTO 12004KT 10SM CLR 13/07 A2999 RMK AO2 SLP136 T01330067 10222 20133 51006 $
KWRL
(33.8 nm SE from KGEY)
020553Z AUTO 18008KT 10SM CLR 10/06 A3000 RMK AO2 SLP140 T01000061 10222 20094 51006
TAF Summary (Translated TAF)
KWRL
(33.8 nm SE from KGEY)
020522Z 0206/0306 16006KT P6SM SKC
KCOD
(40.3 nm NW from KGEY)
020522Z 0206/0306 21007KT P6SM SKC AMD LTD TO CLD VIS AND WIND
  Airport Weather Conditions for KGEY

Current weather conditions are
not available for GEY


The nearest NOAA weather station
is at WRL, (33.8 nm SE from GEY)
  
 Current Weather at WRL
50° F
Fair
South winds at 9.2 mph
WRL NOAA Radar

Pressure: 30.00 in
Humidity: 77%
Wind: South at 9.2 MPH (8 KT)
Dew Point: 43.0°F
Visibility: 10.00 mi


Airport Weather Forecast for KGEY

Translated METAR and TAF for KGEY
Translated METAR for KGEY (0646 UTC 02 September 2014)
found at http://aviationweather.gov/adds/metars/
 
METAR text: KGEY 020553Z AUTO 12004KT 10SM CLR 13/07 A2999 RMK AO2 SLP136 T01330067 10222 20133 51006 $
Conditions at: KGEY (GREYBULL , WY, US) observed 0553 UTC 02 September 2014
Temperature: 13.3°C (56°F)
Dewpoint: 6.7°C (44°F) [RH = 64%]
Pressure (altimeter): 29.99 inches Hg (1015.7 mb)
[Sea-level pressure: 1013.6 mb]
Winds: from the ESE (120 degrees) at 5 MPH (4 knots; 2.1 m/s)
Visibility: 10 or more miles (16+ km)
Ceiling: at least 12,000 feet AGL
Clouds: sky clear below 12,000 feet AGL
Weather:
SOME DATA ABOVE MAY BE INACCURATE!!!
"$" is an indication the sensor requires maintenance
Translated TAF for KGEY

There is no translated TAF available for this airport

Find All Airport Services Find A Hotel Find A Rental Car Find A Golf Course Find A Restaurant $100 Hamburger



FBO's on the Field
FBO Company Facility Photos Services Transportation Aviation Fuel Prices: Prices include tax
Catering Weather Repair Courtesy Rental Type 100LL JetA JetA+ MOGAS 8087
 
B & G Industries, LLC

This FBO has not yet been rated
FS:Independent
Last Updated: Jul-24
Login to update fuel prices
SS:
Contact B & G Industries, LLCMore FBO Information
 
South Big Horn County Airport

This FBO has not yet been rated
FS:Independent
Last Updated: Aug-05
Login to update fuel prices
SS:
Contact South Big Horn County AirportMore FBO Information
 
Add another FBO Facility Photos Catering Weather Repair Courtesy Rental Type 100LL JetA JetA+ MOGAS 8087
Services Transportation Aviation Fuel Prices: Prices include tax


GlobalAir.com Airport Resource Center model-print
model-print
model-print
model-print